Time;durP1;ratioP1;P1;durP2;ratioP2;P2;SDS_P1;SDS_P2;PMS_P1;PMS_P2;Temp;Humidity;BMP_temperature;BMP_pressure;BME280_temperature;BME280_humidity;BME280_pressure;Samples;Min_cycle;Max_cycle;Signal;HPM_P1;HPM_P2
2022/06/18 00:00:46;;;;;;;3.65;2.40;;;;;;;23.15;40.02;100605.81;10371441;28;20621;-58
2022/06/18 00:05:50;;;;;;;3.60;2.33;;;;;;;23.06;40.47;100610.50;10375125;28;20720;-58
2022/06/18 00:16:21;;;;;;;3.80;2.30;;;;;;;22.91;41.22;100600.59;10373839;28;20174;-58
2022/06/18 00:21:25;;;;;;;4.72;2.28;;;;;;;22.85;41.46;100598.66;10377107;28;20045;-58
2022/06/18 00:26:26;;;;;;;4.82;2.40;;;;;;;22.78;41.67;100584.19;10373104;28;20056;-58
2022/06/18 00:31:28;;;;;;;2.90;2.35;;;;;;;22.72;41.87;100576.84;10370379;28;20158;-58
2022/06/18 00:36:29;;;;;;;3.85;2.50;;;;;;;22.67;41.89;100584.72;10376863;28;20053;-58
2022/06/18 00:41:33;;;;;;;6.10;2.22;;;;;;;22.62;42.52;100584.47;10379329;28;20180;-58
2022/06/18 00:46:49;;;;;;;4.78;2.58;;;;;;;22.53;43.11;100578.34;10382647;28;20053;-58
2022/06/18 00:52:01;;;;;;;3.95;2.65;;;;;;;22.44;43.13;100564.06;10381832;28;20049;-58
2022/06/18 00:57:11;;;;;;;5.13;2.10;;;;;;;22.44;43.64;100574.06;10379329;28;20152;-59
2022/06/18 01:02:18;;;;;;;2.85;2.15;;;;;;;22.41;43.68;100586.16;10380771;28;20147;-56
2022/06/18 01:07:38;;;;;;;5.45;2.65;;;;;;;22.34;43.93;100574.38;10381188;28;20942;-57
2022/06/18 01:12:40;;;;;;;4.68;2.20;;;;;;;22.23;44.06;100579.28;10380412;28;20136;-57
2022/06/18 01:17:42;;;;;;;3.70;2.38;;;;;;;22.13;44.28;100577.88;10377500;28;20810;-57
2022/06/18 01:22:55;;;;;;;2.83;2.35;;;;;;;22.04;44.76;100566.34;10379271;28;20398;-56
2022/06/18 01:27:58;;;;;;;2.45;2.10;;;;;;;21.99;45.01;100571.47;10380030;28;20206;-57
2022/06/18 01:33:00;;;;;;;4.15;2.30;;;;;;;21.92;44.61;100570.56;10380364;28;20223;-57
2022/06/18 01:38:02;;;;;;;2.63;2.17;;;;;;;21.85;45.54;100578.63;10384696;28;20135;-57
2022/06/18 01:43:06;;;;;;;4.53;2.45;;;;;;;21.87;45.79;100572.00;10376973;28;20222;-57
2022/06/18 01:48:19;;;;;;;4.78;2.13;;;;;;;21.85;45.72;100560.47;10379124;28;20609;-56
2022/06/18 01:53:29;;;;;;;3.15;2.30;;;;;;;21.78;45.76;100564.16;10374417;28;20050;-57
2022/06/18 01:58:39;;;;;;;3.33;2.17;;;;;;;21.74;45.66;100561.00;10376098;28;20134;-56
2022/06/18 02:03:40;;;;;;;4.57;2.53;;;;;;;21.65;46.64;100554.00;10374273;28;20190;-56
2022/06/18 02:08:42;;;;;;;3.00;2.33;;;;;;;21.63;46.56;100550.63;10371426;28;20239;-57
2022/06/18 02:13:48;;;;;;;2.55;2.35;;;;;;;21.59;46.46;100549.31;10373952;28;20190;-57
2022/06/18 02:18:50;;;;;;;3.05;2.10;;;;;;;21.54;46.81;100545.31;10378902;28;20170;-57
2022/06/18 02:23:54;;;;;;;3.95;2.65;;;;;;;21.57;46.90;100540.56;10371109;28;20136;-57
2022/06/18 02:28:58;;;;;;;2.97;2.42;;;;;;;21.59;47.17;100536.63;10374086;28;20514;-57
2022/06/18 02:34:08;;;;;;;5.50;2.70;;;;;;;21.57;47.11;100527.00;10374653;28;20055;-57
2022/06/18 02:39:29;;;;;;;4.72;3.05;;;;;;;21.53;47.10;100531.97;10376781;28;20185;-57
2022/06/18 02:44:32;;;;;;;5.10;3.00;;;;;;;21.49;47.16;100528.75;10375826;28;20180;-60
2022/06/18 02:49:42;;;;;;;6.10;3.40;;;;;;;21.41;47.82;100531.56;10383713;22;20551;-68
2022/06/18 02:54:43;;;;;;;4.03;3.08;;;;;;;21.29;48.34;100522.25;10361048;28;20128;-68
2022/06/18 02:59:44;;;;;;;4.47;3.00;;;;;;;21.21;47.84;100520.47;10393214;28;20050;-69
2022/06/18 03:04:46;;;;;;;3.97;2.95;;;;;;;21.12;48.67;100517.03;10411805;28;20129;-68
2022/06/18 03:15:07;;;;;;;3.40;2.70;;;;;;;21.14;48.56;100514.13;10406447;28;20075;-68
2022/06/18 03:20:16;;;;;;;2.70;2.50;;;;;;;21.08;48.96;100515.72;10400540;28;20051;-68
2022/06/18 03:25:18;;;;;;;3.13;2.67;;;;;;;20.98;49.44;100515.97;10402668;28;20635;-69
2022/06/18 03:30:19;;;;;;;4.00;2.60;;;;;;;20.90;49.58;100516.06;10434329;28;20132;-69
2022/06/18 03:35:21;;;;;;;4.18;3.53;;;;;;;20.90;49.78;100517.94;10421250;28;20545;-67
2022/06/18 03:40:22;;;;;;;2.97;2.67;;;;;;;20.80;50.63;100524.44;10412900;28;20059;-71
2022/06/18 03:45:24;;;;;;;3.10;2.90;;;;;;;20.76;50.56;100517.75;10429044;28;20114;-69
2022/06/18 03:50:25;;;;;;;5.80;2.75;;;;;;;20.80;51.14;100521.75;10406766;28;20073;-69
2022/06/18 03:55:27;;;;;;;3.83;2.42;;;;;;;20.92;50.87;100524.84;10407988;28;20053;-69
2022/06/18 04:00:28;;;;;;;3.20;2.88;;;;;;;21.00;50.69;100529.31;10409202;28;20719;-70
2022/06/18 04:05:32;;;;;;;3.97;3.00;;;;;;;21.04;50.36;100527.94;10406140;28;20092;-70
2022/06/18 04:10:33;;;;;;;3.55;2.13;;;;;;;21.02;50.61;100525.41;10410938;28;20137;-70
2022/06/18 04:15:35;;;;;;;2.95;2.65;;;;;;;21.04;50.20;100530.63;10416191;28;20190;-69
2022/06/18 04:20:37;;;;;;;3.38;3.08;;;;;;;21.02;50.42;100524.56;10405857;28;20123;-69
2022/06/18 04:25:39;;;;;;;4.05;2.85;;;;;;;21.01;50.46;100536.41;10414576;28;20750;-69
2022/06/18 04:30:41;;;;;;;3.78;3.47;;;;;;;21.05;50.39;100547.69;10402895;28;20067;-69
2022/06/18 04:35:42;;;;;;;3.83;3.45;;;;;;;21.04;50.62;100537.94;10399442;28;20144;-71
2022/06/18 04:40:43;;;;;;;4.68;3.20;;;;;;;21.00;50.84;100540.13;10406410;28;20057;-69
2022/06/18 04:46:01;;;;;;;4.28;3.10;;;;;;;20.96;50.51;100546.97;10401702;28;20706;-70
2022/06/18 04:51:02;;;;;;;5.43;3.00;;;;;;;20.96;50.28;100538.84;10346630;28;20776;-69
2022/06/18 04:56:04;;;;;;;2.97;2.65;;;;;;;21.03;49.87;100534.34;10416521;28;20037;-69
2022/06/18 05:01:05;;;;;;;3.47;2.92;;;;;;;21.06;50.81;100531.28;10406575;28;20148;-69
2022/06/18 05:06:07;;;;;;;4.00;2.80;;;;;;;21.08;50.97;100542.78;10412162;28;20047;-69
2022/06/18 05:11:08;;;;;;;3.78;2.95;;;;;;;21.10;50.42;100539.88;10427620;28;20045;-70
2022/06/18 05:16:10;;;;;;;3.00;2.63;;;;;;;21.17;50.02;100536.25;10425488;28;20051;-69
2022/06/18 05:21:12;;;;;;;3.45;2.58;;;;;;;21.31;49.76;100541.84;10411005;28;20048;-69
2022/06/18 05:26:15;;;;;;;3.63;2.38;;;;;;;21.38;49.87;100526.53;10412624;28;20045;-70
2022/06/18 05:31:16;;;;;;;3.17;2.55;;;;;;;21.47;49.23;100530.81;10405218;28;20049;-70
2022/06/18 05:36:19;;;;;;;4.20;2.00;;;;;;;21.57;48.51;100518.88;10408027;28;20692;-70
2022/06/18 05:41:22;;;;;;;4.68;2.67;;;;;;;21.66;47.72;100512.31;10398967;28;20049;-70
2022/06/18 05:46:23;;;;;;;2.42;1.75;;;;;;;21.81;47.28;100515.84;10404662;28;20059;-69
2022/06/18 05:51:25;;;;;;;3.70;1.50;;;;;;;21.89;47.21;100512.19;10399841;28;20143;-70
2022/06/18 05:56:27;;;;;;;3.53;1.50;;;;;;;22.01;46.77;100509.81;10393437;28;20053;-71
2022/06/18 06:01:28;;;;;;;2.85;1.60;;;;;;;22.15;46.52;100500.78;10385044;28;20140;-70
2022/06/18 06:06:30;;;;;;;4.57;1.48;;;;;;;22.30;46.15;100503.41;10387550;28;20052;-70
2022/06/18 06:11:32;;;;;;;3.95;2.13;;;;;;;22.37;44.41;100504.34;10387393;28;20120;-70
2022/06/18 06:16:34;;;;;;;2.72;1.50;;;;;;;22.38;44.77;100486.19;10389199;28;20049;-71
2022/06/18 06:21:36;;;;;;;4.22;1.60;;;;;;;22.47;44.74;100493.16;10386979;28;20059;-69
2022/06/18 06:26:37;;;;;;;2.85;1.75;;;;;;;22.57;44.13;100492.81;10386700;28;20056;-69
2022/06/18 06:31:38;;;;;;;4.03;1.98;;;;;;;22.63;44.42;100494.75;10384764;28;20052;-70
2022/06/18 06:36:40;;;;;;;4.60;2.28;;;;;;;22.80;44.31;100489.84;10387944;28;20056;-71
2022/06/18 06:41:42;;;;;;;4.38;1.77;;;;;;;22.89;44.36;100490.53;10384783;28;20155;-67
2022/06/18 06:46:43;;;;;;;4.07;1.75;;;;;;;22.95;44.32;100490.59;10392142;28;20086;-69
2022/06/18 06:51:45;;;;;;;8.55;5.78;;;;;;;23.12;44.10;100490.31;10384823;28;20048;-70
2022/06/18 07:02:16;;;;;;;2.92;1.83;;;;;;;23.55;42.46;100483.81;10384674;28;20151;-70
2022/06/18 07:07:18;;;;;;;1.90;1.80;;;;;;;23.63;42.65;100481.75;10381484;28;21518;-69
2022/06/18 07:12:20;;;;;;;1.77;1.63;;;;;;;23.83;41.94;100470.94;10380467;28;20060;-69
2022/06/18 07:17:22;;;;;;;3.03;1.70;;;;;;;23.98;41.21;100489.81;10381124;28;20053;-69
2022/06/18 07:22:24;;;;;;;3.53;1.40;;;;;;;24.10;41.40;100478.34;10379791;28;20936;-69
2022/06/18 07:27:26;;;;;;;2.53;1.85;;;;;;;24.26;40.79;100474.38;10383790;28;21003;-69
2022/06/18 07:32:28;;;;;;;4.32;1.73;;;;;;;24.39;39.91;100465.38;10377225;28;20157;-70
2022/06/18 07:37:30;;;;;;;6.63;1.88;;;;;;;24.63;40.19;100463.94;10387146;28;20045;-72
2022/06/18 07:42:31;;;;;;;3.30;1.63;;;;;;;24.74;39.67;100455.13;10396930;28;20169;-70
2022/06/18 07:47:33;;;;;;;2.50;1.75;;;;;;;24.87;39.09;100460.53;10400223;28;20033;-72
2022/06/18 07:52:34;;;;;;;3.72;1.80;;;;;;;25.06;38.26;100453.34;10423782;28;20053;-69
2022/06/18 07:57:36;;;;;;;3.47;1.65;;;;;;;25.19;37.53;100446.19;10384326;28;20060;-72
2022/06/18 08:02:39;;;;;;;2.05;1.65;;;;;;;25.47;37.24;100439.63;10385090;28;20057;-70
2022/06/18 08:07:40;;;;;;;2.67;1.60;;;;;;;25.63;37.36;100441.84;10386201;28;20052;-70
2022/06/18 08:12:42;;;;;;;4.32;1.45;;;;;;;25.80;36.88;100439.41;10389797;28;21725;-73
2022/06/18 08:17:43;;;;;;;3.08;1.60;;;;;;;26.04;37.04;100429.63;10394390;28;20114;-71
2022/06/18 08:22:48;;;;;;;3.90;1.65;;;;;;;26.21;36.38;100427.19;10394694;28;20049;-71
2022/06/18 08:27:50;;;;;;;5.07;1.17;;;;;;;26.40;35.54;100419.88;10391863;28;20095;-73
2022/06/18 08:32:52;;;;;;;3.00;1.23;;;;;;;26.61;35.65;100401.41;10391532;28;20119;-70
2022/06/18 08:37:54;;;;;;;3.30;1.48;;;;;;;26.89;34.66;100411.84;10391703;28;20057;-70
2022/06/18 08:43:12;;;;;;;1.55;1.27;;;;;;;27.08;35.16;100409.97;10387332;28;20126;-70
2022/06/18 08:48:40;;;;;;;2.55;1.25;;;;;;;27.39;34.84;100399.91;10392716;28;20044;-71
2022/06/18 08:53:57;;;;;;;3.67;1.42;;;;;;;27.62;33.54;100390.97;10387410;28;20045;-71
2022/06/18 08:59:17;;;;;;;1.48;1.13;;;;;;;27.96;34.36;100393.19;10388190;28;20728;-72
2022/06/18 09:04:43;;;;;;;2.00;1.60;;;;;;;28.27;33.60;100394.78;10381612;28;21902;-70
2022/06/18 09:10:20;;;;;;;1.73;1.55;;;;;;;28.45;32.94;100390.25;10374006;28;20888;-70
2022/06/18 09:15:28;;;;;;;2.20;1.60;;;;;;;28.81;32.85;100383.72;10382485;28;20061;-70
2022/06/18 09:20:36;;;;;;;4.03;1.40;;;;;;;28.91;32.93;100381.19;10378410;28;20190;-70
2022/06/18 09:25:45;;;;;;;2.65;1.75;;;;;;;29.25;32.95;100378.59;10382665;28;20242;-72
2022/06/18 09:30:52;;;;;;;3.70;1.27;;;;;;;29.52;32.47;100371.69;10384852;28;20082;-72
2022/06/18 09:36:02;;;;;;;5.82;1.50;;;;;;;29.91;31.43;100360.84;10384953;28;20582;-74
2022/06/18 09:41:13;;;;;;;3.88;1.42;;;;;;;29.99;30.81;100365.09;10387703;28;20962;-73
2022/06/18 09:46:20;;;;;;;2.22;1.45;;;;;;;30.01;30.37;100358.28;10383623;28;20752;-73
2022/06/18 09:52:06;;;;;;;2.28;1.33;;;;;;;30.45;30.68;100349.34;10380167;28;20053;-73
2022/06/18 09:57:11;;;;;;;3.03;1.20;;;;;;;30.82;30.41;100348.69;10364762;28;20084;-73
2022/06/18 10:02:23;;;;;;;1.83;1.38;;;;;;;31.08;29.80;100338.88;10377653;28;20045;-69
2022/06/18 10:07:28;;;;;;;4.78;1.60;;;;;;;31.19;29.59;100331.56;10381232;28;20065;-71
2022/06/18 10:12:36;;;;;;;1.67;1.40;;;;;;;31.31;29.55;100323.16;10383456;28;20053;-70
2022/06/18 10:17:52;;;;;;;3.17;1.52;;;;;;;31.44;28.13;100313.69;10386193;28;20057;-70
2022/06/18 10:23:12;;;;;;;4.10;1.30;;;;;;;31.73;28.49;100311.47;10386181;28;20055;-72
2022/06/18 10:28:27;;;;;;;2.90;1.50;;;;;;;32.00;28.22;100303.13;10398549;28;20049;-71
2022/06/18 10:34:14;;;;;;;2.80;1.52;;;;;;;32.25;28.54;100305.25;10393100;28;20128;-71
2022/06/18 10:39:34;;;;;;;1.98;1.27;;;;;;;32.36;27.99;100300.59;10384316;28;20068;-72
2022/06/18 10:45:11;;;;;;;2.47;1.40;;;;;;;32.67;27.28;100287.00;10385401;28;20045;-71
2022/06/18 10:50:15;;;;;;;2.22;1.55;;;;;;;32.91;27.61;100278.28;10385669;28;20041;-72
2022/06/18 10:55:19;;;;;;;2.88;1.30;;;;;;;33.03;27.71;100284.34;10381874;28;20060;-72
2022/06/18 11:00:25;;;;;;;2.78;1.50;;;;;;;33.26;27.02;100283.03;10381245;28;20767;-71
2022/06/18 11:05:33;;;;;;;3.53;1.38;;;;;;;33.27;27.00;100268.13;10384127;28;20150;-73
2022/06/18 11:10:36;;;;;;;2.45;1.45;;;;;;;33.58;26.99;100267.31;10382518;28;20144;-71
2022/06/18 11:15:38;;;;;;;6.43;1.92;;;;;;;33.68;26.27;100259.03;10383226;28;20057;-71
2022/06/18 11:20:55;;;;;;;3.67;1.52;;;;;;;33.73;25.92;100259.03;10385410;28;20059;-71
2022/06/18 11:25:57;;;;;;;3.45;1.23;;;;;;;33.69;26.59;100241.38;10388774;28;20371;-72
2022/06/18 11:31:01;;;;;;;5.68;1.55;;;;;;;33.82;25.87;100246.34;10387720;28;20555;-70
2022/06/18 11:36:15;;;;;;;2.60;1.77;;;;;;;33.95;26.30;100228.34;10398001;28;20599;-71
2022/06/18 11:41:22;;;;;;;6.75;1.67;;;;;;;34.02;25.79;100218.94;10385767;28;20055;-71
2022/06/18 11:46:32;;;;;;;4.10;1.38;;;;;;;34.03;25.55;100218.66;10384967;28;21626;-70
2022/06/18 11:51:44;;;;;;;7.53;1.60;;;;;;;34.26;26.02;100216.41;10384176;28;20120;-71
2022/06/18 11:57:04;;;;;;;4.63;1.95;;;;;;;34.53;24.14;100216.81;10386342;28;20055;-70
2022/06/18 12:02:19;;;;;;;5.10;1.33;;;;;;;34.40;24.71;100206.41;10381823;28;20302;-70
2022/06/18 12:07:46;;;;;;;5.47;1.90;;;;;;;34.40;24.14;100200.06;10368085;28;20059;-70
2022/06/18 12:13:11;;;;;;;6.32;1.83;;;;;;;34.50;23.37;100187.00;10378012;28;20072;-71
2022/06/18 12:18:26;;;;;;;6.93;1.80;;;;;;;34.65;23.49;100163.97;10411378;28;20105;-69
2022/06/18 12:23:51;;;;;;;6.28;1.85;;;;;;;34.80;23.73;100165.84;10381246;28;20053;-73
2022/06/18 12:29:08;;;;;;;4.20;1.50;;;;;;;34.74;23.04;100155.91;10366743;28;20673;-71
2022/06/18 12:34:47;;;;;;;6.05;2.03;;;;;;;34.79;22.61;100153.13;10381553;28;20057;-71
2022/06/18 12:39:56;;;;;;;9.65;2.75;;;;;;;34.71;22.79;100139.91;10379977;28;20935;-70
2022/06/18 12:45:28;;;;;;;10.70;2.40;;;;;;;34.84;22.21;100139.25;10377824;28;20060;-70
2022/06/18 12:50:48;;;;;;;6.20;2.05;;;;;;;34.79;22.09;100124.66;10374000;28;20049;-70
2022/06/18 12:56:04;;;;;;;6.55;1.92;;;;;;;34.91;22.28;100116.81;10379630;28;20602;-70
2022/06/18 13:01:30;;;;;;;9.27;2.97;;;;;;;34.94;22.08;100109.88;10389198;28;20045;-71
2022/06/18 13:06:50;;;;;;;7.97;1.92;;;;;;;35.06;22.26;100102.03;10392276;28;20717;-71
2022/06/18 13:12:25;;;;;;;8.45;2.30;;;;;;;35.17;21.41;100095.25;10381428;28;20045;-72
2022/06/18 13:17:36;;;;;;;8.68;1.92;;;;;;;35.07;21.63;100091.78;10388086;28;20049;-71
2022/06/18 13:22:37;;;;;;;7.53;2.47;;;;;;;35.11;21.72;100082.59;10389458;28;20163;-71
2022/06/18 13:28:10;;;;;;;6.78;2.50;;;;;;;35.07;21.10;100087.09;10387744;28;20503;-68
2022/06/18 13:33:32;;;;;;;5.45;2.20;;;;;;;35.01;20.71;100078.00;10400104;28;20056;-70
2022/06/18 13:39:00;;;;;;;9.18;1.88;;;;;;;35.05;21.15;100072.72;10365810;28;20233;-71
2022/06/18 13:44:33;;;;;;;7.35;2.00;;;;;;;35.25;21.07;100057.84;10374351;28;20053;-73
2022/06/18 13:49:44;;;;;;;7.57;1.88;;;;;;;35.29;21.79;100052.59;10348756;28;20057;-75
2022/06/18 13:54:49;;;;;;;9.70;2.35;;;;;;;35.35;21.25;100043.09;10386377;28;20037;-71
2022/06/18 13:59:59;;;;;;;5.97;1.75;;;;;;;35.19;20.70;100029.44;10380558;28;20299;-73
2022/06/18 14:05:12;;;;;;;8.30;2.40;;;;;;;35.10;20.28;100016.53;10382373;28;20045;-74
2022/06/18 14:10:22;;;;;;;7.85;2.65;;;;;;;35.10;20.58;100020.13;10383417;28;20516;-70
2022/06/18 14:15:34;;;;;;;9.95;2.25;;;;;;;35.10;21.43;100009.06;10383390;28;20057;-70
2022/06/18 14:20:38;;;;;;;7.40;2.53;;;;;;;35.20;21.33;100003.41;10382643;28;20378;-72
2022/06/18 14:25:55;;;;;;;10.18;2.25;;;;;;;35.19;20.09;100001.78;10386455;28;20134;-72
2022/06/18 14:31:11;;;;;;;7.95;2.75;;;;;;;35.17;20.71;99987.41;10381605;28;20052;-74
2022/06/18 14:36:17;;;;;;;12.38;3.42;;;;;;;35.06;19.97;99969.28;10384107;28;20075;-75
2022/06/18 14:41:34;;;;;;;10.98;2.28;;;;;;;34.98;19.77;99970.75;10393524;28;20092;-70
2022/06/18 14:47:05;;;;;;;12.75;3.00;;;;;;;34.90;19.78;99962.28;10372722;28;20064;-73
2022/06/18 14:52:21;;;;;;;10.82;2.55;;;;;;;34.97;19.60;99954.47;10375163;28;20057;-69
2022/06/18 14:58:00;;;;;;;13.00;3.30;;;;;;;34.95;18.82;99948.38;10373717;28;20057;-73
2022/06/18 15:03:14;;;;;;;12.05;2.28;;;;;;;34.93;18.93;99939.56;10407986;28;20156;-70
2022/06/18 15:08:17;;;;;;;11.45;2.95;;;;;;;34.94;19.48;99931.00;10377394;28;20061;-71
2022/06/18 15:13:20;;;;;;;9.57;3.42;;;;;;;34.99;18.83;99927.34;10378227;28;20111;-70
2022/06/18 15:18:34;;;;;;;16.80;3.55;;;;;;;34.85;19.11;99914.22;10364266;28;20105;-70
2022/06/18 15:28:45;;;;;;;14.43;3.47;;;;;;;34.85;19.46;99908.69;10382811;28;20048;-70
2022/06/18 15:33:50;;;;;;;8.90;2.95;;;;;;;34.85;19.37;99914.22;10376347;28;20134;-70
2022/06/18 15:39:04;;;;;;;9.07;2.40;;;;;;;34.73;20.20;99902.72;10381669;28;20186;-72
2022/06/18 15:44:25;;;;;;;10.45;2.75;;;;;;;34.79;20.07;99901.56;10377629;28;20047;-72
2022/06/18 15:49:32;;;;;;;12.60;2.87;;;;;;;34.79;20.31;99898.81;10382055;28;20040;-72
2022/06/18 15:54:44;;;;;;;8.95;2.70;;;;;;;34.68;20.57;99894.47;10388037;28;20336;-72
2022/06/18 15:59:51;;;;;;;12.38;2.33;;;;;;;34.56;20.56;99889.38;10391162;28;20725;-72
2022/06/18 16:05:00;;;;;;;11.07;2.75;;;;;;;34.50;21.22;99891.38;10385460;28;20060;-72
2022/06/18 16:10:03;;;;;;;11.95;2.50;;;;;;;34.43;21.20;99874.31;10383962;28;20427;-75
2022/06/18 16:15:30;;;;;;;11.20;2.90;;;;;;;34.38;21.18;99860.56;10387592;28;20049;-70
2022/06/18 16:20:32;;;;;;;13.25;3.40;;;;;;;34.32;21.31;99861.69;10395010;28;20082;-72
2022/06/18 16:25:42;;;;;;;8.27;2.70;;;;;;;34.33;21.45;99864.16;10386130;28;20179;-73
2022/06/18 16:30:43;;;;;;;12.15;3.25;;;;;;;34.31;21.74;99860.06;10389643;28;20110;-72
2022/06/18 16:36:00;;;;;;;13.77;2.75;;;;;;;34.29;21.68;99848.47;10388925;28;20049;-72
2022/06/18 16:41:13;;;;;;;9.40;2.78;;;;;;;34.23;21.49;99857.91;10386866;28;20133;-72
2022/06/18 16:46:21;;;;;;;8.75;3.03;;;;;;;34.17;21.29;99846.91;10393318;28;20925;-73
2022/06/18 16:51:55;;;;;;;12.52;3.38;;;;;;;34.08;21.20;99842.31;10392383;28;20052;-70
2022/06/18 16:56:58;;;;;;;15.40;3.53;;;;;;;34.05;21.74;99840.97;10388727;28;20051;-71
2022/06/18 17:01:59;;;;;;;14.13;3.13;;;;;;;33.98;21.36;99841.28;10391134;28;20048;-71
2022/06/18 17:07:01;;;;;;;14.65;3.50;;;;;;;33.93;21.33;99815.66;10384438;28;20053;-72
2022/06/18 17:12:03;;;;;;;;;;;;;;;33.87;21.19;99827.84;10382994;28;20779;-72
2022/06/18 17:17:05;;;;;;;14.65;4.05;;;;;;;33.77;21.15;99823.28;10388214;28;20024;-72
2022/06/18 17:22:07;;;;;;;14.73;4.15;;;;;;;33.72;21.04;99821.34;10382751;28;20091;-71
2022/06/18 17:32:29;;;;;;;18.13;4.47;;;;;;;33.65;21.55;99804.28;10384083;28;20076;-71
2022/06/18 17:37:31;;;;;;;15.38;4.43;;;;;;;33.61;21.54;99804.03;10381740;28;20060;-71
2022/06/18 17:42:32;;;;;;;12.20;3.67;;;;;;;33.52;21.98;99804.94;10378871;28;20430;-71
2022/06/18 17:47:33;;;;;;;14.27;3.67;;;;;;;33.43;22.27;99800.03;10384674;28;20189;-71
2022/06/18 17:52:35;;;;;;;9.05;3.45;;;;;;;33.34;22.66;99803.69;10381935;28;20057;-71
2022/06/18 17:57:36;;;;;;;10.38;3.33;;;;;;;33.21;23.07;99794.13;10380440;28;20099;-71
2022/06/18 18:02:38;;;;;;;11.40;3.22;;;;;;;33.09;23.80;99784.25;10379470;28;20053;-72
2022/06/18 18:07:39;;;;;;;12.43;4.75;;;;;;;32.98;24.07;99774.38;10382072;28;20083;-71
2022/06/18 18:12:42;;;;;;;10.73;3.70;;;;;;;32.88;24.60;99775.28;10374152;28;20911;-72
2022/06/18 18:17:50;;;;;;;10.95;2.85;;;;;;;32.77;24.71;99771.75;10398989;28;20053;-70
2022/06/18 18:22:51;;;;;;;10.43;2.70;;;;;;;32.66;25.05;99772.88;10404137;28;20820;-72
2022/06/18 18:27:54;;;;;;;;;;;;;;;32.58;25.35;99773.47;10398158;28;20135;-72
2022/06/18 18:32:57;;;;;;;8.98;3.20;;;;;;;32.46;25.63;99767.41;10400769;28;21125;-71
2022/06/18 18:37:58;;;;;;;12.18;3.38;;;;;;;32.34;25.79;99760.31;10408294;28;20084;-70
2022/06/18 18:43:01;;;;;;;14.02;2.70;;;;;;;32.25;25.96;99762.00;10408133;28;20044;-72
2022/06/18 18:48:04;;;;;;;9.45;3.15;;;;;;;32.14;26.13;99741.91;10389204;28;20522;-70
2022/06/18 18:53:05;;;;;;;17.00;3.97;;;;;;;32.00;26.38;99736.16;10380402;28;20045;-70
2022/06/18 18:58:08;;;;;;;15.35;3.20;;;;;;;31.91;26.64;99735.06;10379743;28;20049;-71
2022/06/18 19:03:14;;;;;;;10.77;2.53;;;;;;;31.78;27.00;99730.94;10391334;28;20057;-71
2022/06/18 19:08:16;;;;;;;13.98;3.90;;;;;;;31.66;26.92;99734.00;10381487;28;20044;-71
2022/06/18 19:13:21;;;;;;;12.23;3.72;;;;;;;31.56;27.39;99734.03;10373966;28;20504;-71
2022/06/18 19:18:26;;;;;;;15.38;3.33;;;;;;;31.42;27.64;99727.38;10381288;28;20060;-69
2022/06/18 19:23:28;;;;;;;13.05;3.42;;;;;;;31.29;28.00;99726.84;10376248;28;20836;-70
2022/06/18 19:28:38;;;;;;;8.88;3.17;;;;;;;31.19;28.10;99724.06;10382867;28;20060;-70
2022/06/18 19:33:40;;;;;;;13.68;3.88;;;;;;;31.08;28.47;99723.25;10379036;28;21007;-73
2022/06/18 19:38:44;;;;;;;12.27;3.70;;;;;;;30.97;28.94;99729.78;10385255;28;20049;-72
2022/06/18 19:43:46;;;;;;;13.00;3.13;;;;;;;30.87;28.91;99725.09;10385794;28;20057;-71
2022/06/18 19:48:48;;;;;;;11.45;3.38;;;;;;;30.76;29.14;99727.00;10390242;28;21592;-71
2022/06/18 19:53:53;;;;;;;9.90;2.70;;;;;;;30.65;29.51;99726.13;10403987;28;20145;-71
2022/06/18 19:58:55;;;;;;;10.52;2.90;;;;;;;30.59;29.70;99732.69;10396508;28;20646;-71
2022/06/18 20:03:56;;;;;;;13.83;4.10;;;;;;;30.48;29.49;99720.03;10396093;28;20090;-70
2022/06/18 20:08:58;;;;;;;;;;;;;;;30.40;29.71;99729.63;10394551;28;20097;-71
2022/06/18 20:14:00;;;;;;;13.15;2.90;;;;;;;30.34;29.84;99725.13;10394753;28;19936;-71
2022/06/18 20:19:02;;;;;;;13.37;3.37;;;;;;;30.26;29.86;99722.91;10364511;28;20068;-70
2022/06/18 20:24:04;;;;;;;9.20;3.65;;;;;;;30.20;29.96;99716.56;10338088;28;20686;-71
2022/06/18 20:29:05;;;;;;;;;;;;;;;30.14;30.03;99706.66;10337215;28;20053;-70
2022/06/18 20:34:09;;;;;;;15.98;3.65;;;;;;;30.04;30.44;99701.13;10360778;28;19955;-70
2022/06/18 20:39:11;;;;;;;9.70;3.38;;;;;;;29.97;30.75;99695.88;10389910;28;20059;-72
2022/06/18 20:44:13;;;;;;;13.68;3.78;;;;;;;29.87;31.06;99691.16;10392931;28;20137;-74
2022/06/18 20:49:15;;;;;;;12.57;3.63;;;;;;;29.81;31.49;99683.97;10385528;28;20171;-71
2022/06/18 20:59:53;;;;;;;13.38;3.58;;;;;;;29.64;32.64;99667.69;10389942;28;20555;-71
2022/06/18 21:04:55;;;;;;;15.43;5.35;;;;;;;29.53;32.66;99666.78;10390407;28;20109;-71
2022/06/18 21:09:58;;;;;;;9.60;4.03;;;;;;;29.43;32.67;99653.00;10388396;28;20060;-72
2022/06/18 21:15:00;;;;;;;11.85;3.75;;;;;;;29.35;32.97;99648.00;10390033;28;20049;-71
2022/06/18 21:20:03;;;;;;;18.25;4.75;;;;;;;29.25;33.03;99648.75;10396525;28;20078;-71
2022/06/18 21:25:07;;;;;;;10.43;4.72;;;;;;;29.14;33.15;99636.00;10402226;28;20508;-72
2022/06/18 21:30:08;;;;;;;12.13;4.18;;;;;;;29.06;33.41;99631.84;10392445;28;20078;-73
2022/06/18 21:40:51;;;;;;;7.63;3.72;;;;;;;28.83;34.03;99613.84;10380775;28;20052;-70
2022/06/18 21:45:55;;;;;;;14.68;4.28;;;;;;;28.73;34.53;99609.09;10405463;28;20052;-71
2022/06/18 21:50:56;;;;;;;7.80;3.85;;;;;;;28.63;34.28;99606.25;10405512;28;20148;-69
2022/06/18 21:56:10;;;;;;;11.95;4.78;;;;;;;28.53;34.54;99599.56;10410469;28;20049;-70
2022/06/18 22:01:12;;;;;;;15.30;5.03;;;;;;;28.42;35.07;99592.34;10406762;28;20041;-72
2022/06/18 22:06:13;;;;;;;15.23;4.10;;;;;;;28.36;35.56;99593.38;10399140;28;20045;-71
2022/06/18 22:11:15;;;;;;;13.30;5.43;;;;;;;28.27;35.39;99578.47;10404023;28;20274;-72
2022/06/18 22:21:37;;;;;;;10.65;4.25;;;;;;;28.07;35.83;99574.44;10404013;28;20892;-70
2022/06/18 22:26:39;;;;;;;11.33;3.90;;;;;;;28.00;36.71;99574.66;10409956;28;20159;-71
2022/06/18 22:31:41;;;;;;;12.25;3.75;;;;;;;27.94;36.39;99566.59;10402635;28;20048;-71
2022/06/18 22:36:43;;;;;;;13.23;3.77;;;;;;;27.83;36.63;99557.44;10407027;28;20515;-71
2022/06/18 22:41:46;;;;;;;8.98;4.25;;;;;;;27.80;36.98;99563.41;10398122;28;20055;-71
2022/06/18 22:46:51;;;;;;;9.63;4.03;;;;;;;27.71;36.64;99560.28;10401651;28;20049;-71
2022/06/18 22:51:53;;;;;;;10.75;4.10;;;;;;;27.67;37.00;99550.97;10396827;28;20045;-71
2022/06/18 22:56:55;;;;;;;9.63;3.90;;;;;;;27.60;37.05;99542.13;10407222;28;20073;-71
2022/06/18 23:01:57;;;;;;;15.70;4.53;;;;;;;27.52;37.61;99536.00;10403485;28;20736;-71
2022/06/18 23:06:59;;;;;;;10.73;3.45;;;;;;;27.43;37.35;99512.09;10401778;28;20131;-71
2022/06/18 23:12:02;;;;;;;9.13;3.50;;;;;;;27.30;38.14;99488.69;10405049;28;20122;-71
2022/06/18 23:17:08;;;;;;;13.07;3.63;;;;;;;27.29;38.05;99511.59;10402967;28;20552;-71
2022/06/18 23:22:10;;;;;;;8.35;3.83;;;;;;;27.24;38.24;99509.63;10407785;28;20040;-71
2022/06/18 23:27:12;;;;;;;11.98;4.13;;;;;;;27.21;37.94;99512.06;10401890;28;20710;-72
2022/06/18 23:32:16;;;;;;;7.72;3.67;;;;;;;27.15;38.49;99495.56;10408919;28;20164;-71
2022/06/18 23:37:23;;;;;;;10.60;3.53;;;;;;;27.09;38.76;99487.56;10402491;28;20057;-71
2022/06/18 23:42:24;;;;;;;9.18;4.30;;;;;;;27.03;38.91;99483.13;10403586;28;20052;-71
2022/06/18 23:47:27;;;;;;;9.30;3.20;;;;;;;26.95;38.74;99484.38;10407834;28;20041;-71
2022/06/18 23:52:29;;;;;;;12.02;3.95;;;;;;;26.89;39.18;99482.63;10408699;28;20049;-70
2022/06/18 23:57:33;;;;;;;8.30;3.43;;;;;;;26.79;39.20;99478.66;10400121;28;20048;-69
